sensor_id;sensor_type;location;lat;lon;timestamp;temperature;humidity
16301;DHT22;8258;51.020;4.248;2024-02-28T00:00:13;4.00;99.90
16301;DHT22;8258;51.020;4.248;2024-02-28T00:02:41;3.90;99.90
16301;DHT22;8258;51.020;4.248;2024-02-28T00:15:30;3.60;99.90
16301;DHT22;8258;51.020;4.248;2024-02-28T00:17:58;3.60;99.90
16301;DHT22;8258;51.020;4.248;2024-02-28T00:20:26;3.50;99.90
16301;DHT22;8258;51.020;4.248;2024-02-28T00:22:53;3.40;99.90
16301;DHT22;8258;51.020;4.248;2024-02-28T00:25:20;3.40;99.90
16301;DHT22;8258;51.020;4.248;2024-02-28T00:27:47;3.20;99.90
16301;DHT22;8258;51.020;4.248;2024-02-28T00:30:14;3.40;99.90
16301;DHT22;8258;51.020;4.248;2024-02-28T00:32:41;3.40;99.90
16301;DHT22;8258;51.020;4.248;2024-02-28T00:35:10;3.40;99.90
16301;DHT22;8258;51.020;4.248;2024-02-28T00:37:37;3.50;99.90
16301;DHT22;8258;51.020;4.248;2024-02-28T00:40:05;3.40;99.90
16301;DHT22;8258;51.020;4.248;2024-02-28T00:42:32;3.40;99.90
16301;DHT22;8258;51.020;4.248;2024-02-28T00:44:59;3.30;99.90
16301;DHT22;8258;51.020;4.248;2024-02-28T00:47:26;3.30;99.90
16301;DHT22;8258;51.020;4.248;2024-02-28T00:49:55;3.20;99.90
16301;DHT22;8258;51.020;4.248;2024-02-28T00:52:23;3.20;99.90
16301;DHT22;8258;51.020;4.248;2024-02-28T00:54:51;3.20;99.90
16301;DHT22;8258;51.020;4.248;2024-02-28T00:57:18;3.30;99.90
16301;DHT22;8258;51.020;4.248;2024-02-28T00:59:45;3.20;99.90
16301;DHT22;8258;51.020;4.248;2024-02-28T01:02:12;3.10;99.90
16301;DHT22;8258;51.020;4.248;2024-02-28T01:04:39;3.00;99.90
16301;DHT22;8258;51.020;4.248;2024-02-28T01:07:06;2.90;99.90
16301;DHT22;8258;51.020;4.248;2024-02-28T01:09:35;2.90;99.90
16301;DHT22;8258;51.020;4.248;2024-02-28T01:12:02;2.90;99.90
16301;DHT22;8258;51.020;4.248;2024-02-28T01:14:29;2.90;99.90
16301;DHT22;8258;51.020;4.248;2024-02-28T01:16:56;2.90;99.90
16301;DHT22;8258;51.020;4.248;2024-02-28T01:19:22;2.90;99.90
16301;DHT22;8258;51.020;4.248;2024-02-28T01:21:49;3.00;99.90
16301;DHT22;8258;51.020;4.248;2024-02-28T01:24:17;3.00;99.90
16301;DHT22;8258;51.020;4.248;2024-02-28T01:26:46;2.90;99.90
16301;DHT22;8258;51.020;4.248;2024-02-28T01:29:13;2.90;99.90
16301;DHT22;8258;51.020;4.248;2024-02-28T01:31:40;2.90;99.90
16301;DHT22;8258;51.020;4.248;2024-02-28T02:45:24;2.40;99.90
16301;DHT22;8258;51.020;4.248;2024-02-28T02:47:51;2.40;99.90
16301;DHT22;8258;51.020;4.248;2024-02-28T02:50:18;2.30;99.90
16301;DHT22;8258;51.020;4.248;2024-02-28T02:52:45;2.30;99.90
16301;DHT22;8258;51.020;4.248;2024-02-28T02:55:12;2.30;99.90
16301;DHT22;8258;51.020;4.248;2024-02-28T02:57:40;2.30;99.90
16301;DHT22;8258;51.020;4.248;2024-02-28T03:00:09;2.40;99.90
16301;DHT22;8258;51.020;4.248;2024-02-28T03:02:37;2.30;99.90
16301;DHT22;8258;51.020;4.248;2024-02-28T03:05:06;2.40;99.90
16301;DHT22;8258;51.020;4.248;2024-02-28T03:07:33;2.40;99.90
16301;DHT22;8258;51.020;4.248;2024-02-28T03:10:02;2.40;99.90
16301;DHT22;8258;51.020;4.248;2024-02-28T03:12:29;2.40;99.90
16301;DHT22;8258;51.020;4.248;2024-02-28T03:14:58;2.40;99.90
16301;DHT22;8258;51.020;4.248;2024-02-28T03:17:27;2.40;99.90
16301;DHT22;8258;51.020;4.248;2024-02-28T03:19:55;2.50;99.90
16301;DHT22;8258;51.020;4.248;2024-02-28T03:22:22;2.50;99.90
16301;DHT22;8258;51.020;4.248;2024-02-28T03:24:49;2.60;99.90
16301;DHT22;8258;51.020;4.248;2024-02-28T03:27:16;2.70;99.90
16301;DHT22;8258;51.020;4.248;2024-02-28T03:29:43;2.70;99.90
16301;DHT22;8258;51.020;4.248;2024-02-28T03:32:10;2.80;99.90
16301;DHT22;8258;51.020;4.248;2024-02-28T03:34:37;2.90;99.90
16301;DHT22;8258;51.020;4.248;2024-02-28T03:37:05;2.90;99.90
16301;DHT22;8258;51.020;4.248;2024-02-28T03:39:32;2.80;99.90
16301;DHT22;8258;51.020;4.248;2024-02-28T03:41:59;2.70;99.90
16301;DHT22;8258;51.020;4.248;2024-02-28T03:44:26;2.70;99.90
16301;DHT22;8258;51.020;4.248;2024-02-28T03:46:53;2.80;99.90
16301;DHT22;8258;51.020;4.248;2024-02-28T03:49:20;2.70;99.90
16301;DHT22;8258;51.020;4.248;2024-02-28T03:51:47;2.80;99.90
16301;DHT22;8258;51.020;4.248;2024-02-28T03:54:18;2.80;99.90
16301;DHT22;8258;51.020;4.248;2024-02-28T03:56:45;2.70;99.90
16301;DHT22;8258;51.020;4.248;2024-02-28T03:59:13;2.70;99.90
16301;DHT22;8258;51.020;4.248;2024-02-28T04:01:41;2.60;99.90
16301;DHT22;8258;51.020;4.248;2024-02-28T04:04:08;2.70;99.90
16301;DHT22;8258;51.020;4.248;2024-02-28T04:06:35;2.60;99.90
16301;DHT22;8258;51.020;4.248;2024-02-28T04:09:02;2.50;99.90
16301;DHT22;8258;51.020;4.248;2024-02-28T04:11:31;2.60;99.90
16301;DHT22;8258;51.020;4.248;2024-02-28T04:13:58;2.50;99.90
16301;DHT22;8258;51.020;4.248;2024-02-28T04:16:25;2.50;99.90
16301;DHT22;8258;51.020;4.248;2024-02-28T04:18:52;2.50;99.90
16301;DHT22;8258;51.020;4.248;2024-02-28T04:21:19;2.40;99.90
16301;DHT22;8258;51.020;4.248;2024-02-28T04:23:46;2.40;99.90
16301;DHT22;8258;51.020;4.248;2024-02-28T04:26:13;2.40;99.90
16301;DHT22;8258;51.020;4.248;2024-02-28T04:28:42;2.30;99.90
16301;DHT22;8258;51.020;4.248;2024-02-28T04:31:10;2.20;99.90
16301;DHT22;8258;51.020;4.248;2024-02-28T04:33:37;2.20;99.90
16301;DHT22;8258;51.020;4.248;2024-02-28T04:36:04;2.20;99.90
16301;DHT22;8258;51.020;4.248;2024-02-28T04:38:31;2.20;99.90
16301;DHT22;8258;51.020;4.248;2024-02-28T04:40:59;2.20;99.90
16301;DHT22;8258;51.020;4.248;2024-02-28T04:43:26;2.10;99.90
16301;DHT22;8258;51.020;4.248;2024-02-28T04:45:54;2.10;99.90
16301;DHT22;8258;51.020;4.248;2024-02-28T04:48:23;2.10;99.90
16301;DHT22;8258;51.020;4.248;2024-02-28T04:50:50;2.20;99.90
16301;DHT22;8258;51.020;4.248;2024-02-28T04:53:17;2.20;99.90
16301;DHT22;8258;51.020;4.248;2024-02-28T04:55:44;2.10;99.90
16301;DHT22;8258;51.020;4.248;2024-02-28T04:58:11;2.20;99.90
16301;DHT22;8258;51.020;4.248;2024-02-28T05:00:39;2.10;99.90
16301;DHT22;8258;51.020;4.248;2024-02-28T05:03:07;2.20;99.90
16301;DHT22;8258;51.020;4.248;2024-02-28T05:05:35;2.20;99.90
16301;DHT22;8258;51.020;4.248;2024-02-28T05:08:02;2.20;99.90
16301;DHT22;8258;51.020;4.248;2024-02-28T05:10:30;2.20;99.90
16301;DHT22;8258;51.020;4.248;2024-02-28T05:12:57;2.20;99.90
16301;DHT22;8258;51.020;4.248;2024-02-28T05:15:24;2.30;99.90
16301;DHT22;8258;51.020;4.248;2024-02-28T05:17:54;2.20;99.90
16301;DHT22;8258;51.020;4.248;2024-02-28T05:20:23;2.30;99.90
16301;DHT22;8258;51.020;4.248;2024-02-28T05:22:50;2.30;99.90
16301;DHT22;8258;51.020;4.248;2024-02-28T05:25:18;2.10;99.90
16301;DHT22;8258;51.020;4.248;2024-02-28T05:27:45;2.10;99.90
16301;DHT22;8258;51.020;4.248;2024-02-28T05:30:12;2.10;99.90
16301;DHT22;8258;51.020;4.248;2024-02-28T05:32:39;2.10;99.90
16301;DHT22;8258;51.020;4.248;2024-02-28T05:35:07;2.10;99.90
16301;DHT22;8258;51.020;4.248;2024-02-28T05:37:40;2.10;99.90
16301;DHT22;8258;51.020;4.248;2024-02-28T05:40:08;2.20;99.90
16301;DHT22;8258;51.020;4.248;2024-02-28T05:42:38;2.20;99.90
16301;DHT22;8258;51.020;4.248;2024-02-28T05:45:06;2.10;99.90
16301;DHT22;8258;51.020;4.248;2024-02-28T05:47:33;2.10;99.90
16301;DHT22;8258;51.020;4.248;2024-02-28T05:50:02;2.10;99.90
16301;DHT22;8258;51.020;4.248;2024-02-28T05:52:30;2.10;99.90
16301;DHT22;8258;51.020;4.248;2024-02-28T05:54:59;2.10;99.90
16301;DHT22;8258;51.020;4.248;2024-02-28T05:57:26;2.10;99.90
16301;DHT22;8258;51.020;4.248;2024-02-28T05:59:54;2.20;99.90
16301;DHT22;8258;51.020;4.248;2024-02-28T06:02:21;2.20;99.90
16301;DHT22;8258;51.020;4.248;2024-02-28T06:04:50;2.30;99.90
16301;DHT22;8258;51.020;4.248;2024-02-28T06:07:18;2.20;99.90
16301;DHT22;8258;51.020;4.248;2024-02-28T06:09:48;2.20;99.90
16301;DHT22;8258;51.020;4.248;2024-02-28T06:12:17;2.20;99.90
16301;DHT22;8258;51.020;4.248;2024-02-28T06:14:44;2.30;99.90
16301;DHT22;8258;51.020;4.248;2024-02-28T06:17:11;2.40;99.90
16301;DHT22;8258;51.020;4.248;2024-02-28T06:19:39;2.40;99.90
16301;DHT22;8258;51.020;4.248;2024-02-28T06:22:07;2.50;99.90
16301;DHT22;8258;51.020;4.248;2024-02-28T06:24:34;2.60;99.90
16301;DHT22;8258;51.020;4.248;2024-02-28T06:27:02;2.60;99.90
16301;DHT22;8258;51.020;4.248;2024-02-28T06:29:35;2.60;99.90
16301;DHT22;8258;51.020;4.248;2024-02-28T06:32:02;2.60;99.90
16301;DHT22;8258;51.020;4.248;2024-02-28T06:34:29;2.60;99.90
16301;DHT22;8258;51.020;4.248;2024-02-28T06:36:57;2.60;99.90
16301;DHT22;8258;51.020;4.248;2024-02-28T06:39:24;2.50;99.90
16301;DHT22;8258;51.020;4.248;2024-02-28T06:41:51;2.50;99.90
16301;DHT22;8258;51.020;4.248;2024-02-28T06:44:19;2.50;99.90
16301;DHT22;8258;51.020;4.248;2024-02-28T06:46:48;2.60;99.90
16301;DHT22;8258;51.020;4.248;2024-02-28T06:49:17;2.70;99.90
16301;DHT22;8258;51.020;4.248;2024-02-28T06:51:45;2.80;99.90
16301;DHT22;8258;51.020;4.248;2024-02-28T06:54:12;3.00;99.90
16301;DHT22;8258;51.020;4.248;2024-02-28T06:56:40;3.00;99.90
16301;DHT22;8258;51.020;4.248;2024-02-28T06:59:08;3.00;99.90
16301;DHT22;8258;51.020;4.248;2024-02-28T07:01:35;3.10;99.90
16301;DHT22;8258;51.020;4.248;2024-02-28T07:04:03;3.20;99.90
16301;DHT22;8258;51.020;4.248;2024-02-28T07:06:30;3.20;99.90
16301;DHT22;8258;51.020;4.248;2024-02-28T07:08:57;3.30;99.90
16301;DHT22;8258;51.020;4.248;2024-02-28T07:11:25;3.50;99.90
16301;DHT22;8258;51.020;4.248;2024-02-28T07:13:52;3.50;99.90
16301;DHT22;8258;51.020;4.248;2024-02-28T07:16:19;3.60;99.90
16301;DHT22;8258;51.020;4.248;2024-02-28T07:18:46;3.60;99.90
16301;DHT22;8258;51.020;4.248;2024-02-28T07:21:15;3.60;99.90
16301;DHT22;8258;51.020;4.248;2024-02-28T07:23:42;3.70;99.90
16301;DHT22;8258;51.020;4.248;2024-02-28T07:26:14;3.70;99.90
16301;DHT22;8258;51.020;4.248;2024-02-28T07:28:42;3.70;99.90
16301;DHT22;8258;51.020;4.248;2024-02-28T07:31:15;3.80;99.90
16301;DHT22;8258;51.020;4.248;2024-02-28T07:33:42;4.00;99.90
16301;DHT22;8258;51.020;4.248;2024-02-28T07:36:12;4.00;99.90
16301;DHT22;8258;51.020;4.248;2024-02-28T07:38:41;4.10;99.90
16301;DHT22;8258;51.020;4.248;2024-02-28T07:41:08;4.10;99.90
16301;DHT22;8258;51.020;4.248;2024-02-28T07:43:35;4.20;99.90
16301;DHT22;8258;51.020;4.248;2024-02-28T07:46:07;4.20;99.90
16301;DHT22;8258;51.020;4.248;2024-02-28T07:48:35;4.20;99.90
16301;DHT22;8258;51.020;4.248;2024-02-28T07:51:04;4.20;99.90
16301;DHT22;8258;51.020;4.248;2024-02-28T07:53:32;4.30;99.90
16301;DHT22;8258;51.020;4.248;2024-02-28T07:56:00;4.30;99.90
16301;DHT22;8258;51.020;4.248;2024-02-28T07:58:28;4.30;99.90
16301;DHT22;8258;51.020;4.248;2024-02-28T08:00:55;4.40;99.90
16301;DHT22;8258;51.020;4.248;2024-02-28T08:03:22;4.40;99.90
16301;DHT22;8258;51.020;4.248;2024-02-28T08:05:49;4.50;99.90
16301;DHT22;8258;51.020;4.248;2024-02-28T08:08:16;4.50;99.90
16301;DHT22;8258;51.020;4.248;2024-02-28T08:10:45;4.60;99.90
16301;DHT22;8258;51.020;4.248;2024-02-28T08:13:16;4.60;99.90
16301;DHT22;8258;51.020;4.248;2024-02-28T08:15:43;4.70;99.90
16301;DHT22;8258;51.020;4.248;2024-02-28T08:18:10;4.70;99.90
16301;DHT22;8258;51.020;4.248;2024-02-28T08:20:37;4.80;99.90
16301;DHT22;8258;51.020;4.248;2024-02-28T08:23:05;4.80;99.90
16301;DHT22;8258;51.020;4.248;2024-02-28T08:25:32;4.80;99.90
16301;DHT22;8258;51.020;4.248;2024-02-28T08:27:59;4.80;99.90
16301;DHT22;8258;51.020;4.248;2024-02-28T08:30:28;4.90;99.90
16301;DHT22;8258;51.020;4.248;2024-02-28T08:32:55;4.90;99.90
16301;DHT22;8258;51.020;4.248;2024-02-28T08:51:10;5.30;99.90
16301;DHT22;8258;51.020;4.248;2024-02-28T09:33:32;6.70;99.90
16301;DHT22;8258;51.020;4.248;2024-02-28T09:49:47;7.40;99.90
16301;DHT22;8258;51.020;4.248;2024-02-28T09:58:09;7.90;99.90
16301;DHT22;8258;51.020;4.248;2024-02-28T10:00:53;7.90;99.90
16301;DHT22;8258;51.020;4.248;2024-02-28T10:03:25;7.90;99.90
16301;DHT22;8258;51.020;4.248;2024-02-28T10:06:03;8.10;99.90
16301;DHT22;8258;51.020;4.248;2024-02-28T10:08:45;8.50;99.90
16301;DHT22;8258;51.020;4.248;2024-02-28T10:11:18;8.60;99.90
16301;DHT22;8258;51.020;4.248;2024-02-28T10:14:07;8.70;99.90
16301;DHT22;8258;51.020;4.248;2024-02-28T10:16:35;8.80;99.90
16301;DHT22;8258;51.020;4.248;2024-02-28T10:19:10;8.70;99.90
16301;DHT22;8258;51.020;4.248;2024-02-28T10:21:43;8.80;99.90
16301;DHT22;8258;51.020;4.248;2024-02-28T10:24:14;8.90;99.90
16301;DHT22;8258;51.020;4.248;2024-02-28T10:55:21;8.50;99.90
16301;DHT22;8258;51.020;4.248;2024-02-28T10:57:51;8.50;99.90
16301;DHT22;8258;51.020;4.248;2024-02-28T11:00:23;8.60;99.90
16301;DHT22;8258;51.020;4.248;2024-02-28T11:02:50;8.50;99.90
16301;DHT22;8258;51.020;4.248;2024-02-28T11:05:17;8.40;99.90
16301;DHT22;8258;51.020;4.248;2024-02-28T11:07:44;8.40;99.90
16301;DHT22;8258;51.020;4.248;2024-02-28T11:10:16;8.40;99.90
16301;DHT22;8258;51.020;4.248;2024-02-28T11:12:43;8.40;99.90
16301;DHT22;8258;51.020;4.248;2024-02-28T11:15:24;8.50;99.90
16301;DHT22;8258;51.020;4.248;2024-02-28T11:17:52;8.50;99.90
16301;DHT22;8258;51.020;4.248;2024-02-28T11:20:19;8.40;99.90
16301;DHT22;8258;51.020;4.248;2024-02-28T11:22:48;8.50;99.90
16301;DHT22;8258;51.020;4.248;2024-02-28T11:25:17;8.50;99.90
16301;DHT22;8258;51.020;4.248;2024-02-28T11:27:47;8.60;99.90
16301;DHT22;8258;51.020;4.248;2024-02-28T11:30:15;8.70;99.90
16301;DHT22;8258;51.020;4.248;2024-02-28T11:32:43;8.80;99.90
16301;DHT22;8258;51.020;4.248;2024-02-28T11:35:09;8.90;99.90
16301;DHT22;8258;51.020;4.248;2024-02-28T11:37:38;9.00;99.90
16301;DHT22;8258;51.020;4.248;2024-02-28T11:40:07;9.30;99.90
16301;DHT22;8258;51.020;4.248;2024-02-28T11:42:38;9.30;99.90
16301;DHT22;8258;51.020;4.248;2024-02-28T11:45:05;9.30;99.90
16301;DHT22;8258;51.020;4.248;2024-02-28T11:47:36;9.40;99.90
16301;DHT22;8258;51.020;4.248;2024-02-28T11:50:05;9.30;99.90
16301;DHT22;8258;51.020;4.248;2024-02-28T11:52:33;9.30;99.90
16301;DHT22;8258;51.020;4.248;2024-02-28T11:55:00;9.40;99.90
16301;DHT22;8258;51.020;4.248;2024-02-28T11:57:28;9.60;99.90
16301;DHT22;8258;51.020;4.248;2024-02-28T12:00:02;9.70;99.90
16301;DHT22;8258;51.020;4.248;2024-02-28T12:02:31;9.70;99.90
16301;DHT22;8258;51.020;4.248;2024-02-28T12:43:52;10.80;99.90
16301;DHT22;8258;51.020;4.248;2024-02-28T12:46:24;11.10;99.90
16301;DHT22;8258;51.020;4.248;2024-02-28T13:15:11;10.60;99.90
16301;DHT22;8258;51.020;4.248;2024-02-28T13:52:04;11.50;99.90
16301;DHT22;8258;51.020;4.248;2024-02-28T13:54:42;11.10;99.90
16301;DHT22;8258;51.020;4.248;2024-02-28T14:25:44;11.40;99.90
16301;DHT22;8258;51.020;4.248;2024-02-28T14:28:12;11.30;99.90
16301;DHT22;8258;51.020;4.248;2024-02-28T14:30:39;11.20;99.90
16301;DHT22;8258;51.020;4.248;2024-02-28T14:33:06;11.10;99.90
16301;DHT22;8258;51.020;4.248;2024-02-28T14:35:34;11.10;99.90
16301;DHT22;8258;51.020;4.248;2024-02-28T14:38:04;11.10;99.90
16301;DHT22;8258;51.020;4.248;2024-02-28T14:40:32;11.30;99.90
16301;DHT22;8258;51.020;4.248;2024-02-28T14:43:00;11.50;99.90
16301;DHT22;8258;51.020;4.248;2024-02-28T14:45:27;11.60;99.90
16301;DHT22;8258;51.020;4.248;2024-02-28T14:47:56;11.30;99.90
16301;DHT22;8258;51.020;4.248;2024-02-28T14:50:23;11.10;99.90
16301;DHT22;8258;51.020;4.248;2024-02-28T14:52:50;11.10;99.90
16301;DHT22;8258;51.020;4.248;2024-02-28T14:55:17;11.40;99.90
16301;DHT22;8258;51.020;4.248;2024-02-28T14:57:45;11.50;99.90
16301;DHT22;8258;51.020;4.248;2024-02-28T15:00:14;11.20;99.90
16301;DHT22;8258;51.020;4.248;2024-02-28T15:02:41;11.00;99.90
16301;DHT22;8258;51.020;4.248;2024-02-28T15:05:08;11.00;99.90
16301;DHT22;8258;51.020;4.248;2024-02-28T15:07:36;10.90;99.90
16301;DHT22;8258;51.020;4.248;2024-02-28T15:10:04;10.80;99.90
16301;DHT22;8258;51.020;4.248;2024-02-28T15:12:32;10.70;99.90
16301;DHT22;8258;51.020;4.248;2024-02-28T15:15:00;10.60;99.90
16301;DHT22;8258;51.020;4.248;2024-02-28T15:17:29;10.50;99.90
16301;DHT22;8258;51.020;4.248;2024-02-28T15:19:56;10.50;99.90
16301;DHT22;8258;51.020;4.248;2024-02-28T15:22:23;10.40;99.90
16301;DHT22;8258;51.020;4.248;2024-02-28T15:24:50;10.50;99.90
16301;DHT22;8258;51.020;4.248;2024-02-28T15:27:18;10.60;99.90
16301;DHT22;8258;51.020;4.248;2024-02-28T15:29:46;10.70;99.90
16301;DHT22;8258;51.020;4.248;2024-02-28T15:32:13;10.60;99.90
16301;DHT22;8258;51.020;4.248;2024-02-28T15:34:44;10.50;99.90
16301;DHT22;8258;51.020;4.248;2024-02-28T15:37:11;10.50;99.90
16301;DHT22;8258;51.020;4.248;2024-02-28T15:39:38;10.40;99.90
16301;DHT22;8258;51.020;4.248;2024-02-28T15:42:07;10.40;99.90
16301;DHT22;8258;51.020;4.248;2024-02-28T15:44:34;10.40;99.90
16301;DHT22;8258;51.020;4.248;2024-02-28T15:47:01;10.40;99.90
16301;DHT22;8258;51.020;4.248;2024-02-28T15:49:30;10.40;99.90
16301;DHT22;8258;51.020;4.248;2024-02-28T15:51:58;10.40;99.90
16301;DHT22;8258;51.020;4.248;2024-02-28T15:54:25;10.40;99.90
16301;DHT22;8258;51.020;4.248;2024-02-28T15:56:52;10.40;99.90
16301;DHT22;8258;51.020;4.248;2024-02-28T15:59:20;10.30;99.90
16301;DHT22;8258;51.020;4.248;2024-02-28T16:01:47;10.20;99.90
16301;DHT22;8258;51.020;4.248;2024-02-28T16:04:14;10.10;99.90
16301;DHT22;8258;51.020;4.248;2024-02-28T16:06:42;10.10;99.90
16301;DHT22;8258;51.020;4.248;2024-02-28T16:09:10;10.10;99.90
16301;DHT22;8258;51.020;4.248;2024-02-28T16:11:38;10.10;99.90
16301;DHT22;8258;51.020;4.248;2024-02-28T16:14:05;10.10;99.90
16301;DHT22;8258;51.020;4.248;2024-02-28T16:16:32;10.00;99.90
16301;DHT22;8258;51.020;4.248;2024-02-28T16:18:59;10.00;99.90
16301;DHT22;8258;51.020;4.248;2024-02-28T16:21:26;10.00;99.90
16301;DHT22;8258;51.020;4.248;2024-02-28T16:23:53;9.90;99.90
16301;DHT22;8258;51.020;4.248;2024-02-28T16:26:22;9.90;99.90
16301;DHT22;8258;51.020;4.248;2024-02-28T16:28:49;9.90;99.90
16301;DHT22;8258;51.020;4.248;2024-02-28T16:31:16;9.90;99.90
16301;DHT22;8258;51.020;4.248;2024-02-28T16:33:43;9.90;99.90
16301;DHT22;8258;51.020;4.248;2024-02-28T16:36:10;9.80;99.90
16301;DHT22;8258;51.020;4.248;2024-02-28T16:38:37;9.70;99.90
16301;DHT22;8258;51.020;4.248;2024-02-28T16:41:04;9.70;99.90
16301;DHT22;8258;51.020;4.248;2024-02-28T16:43:33;9.60;99.90
16301;DHT22;8258;51.020;4.248;2024-02-28T16:45:59;9.50;99.90
16301;DHT22;8258;51.020;4.248;2024-02-28T16:48:27;9.50;99.90
16301;DHT22;8258;51.020;4.248;2024-02-28T16:50:54;9.50;99.90
16301;DHT22;8258;51.020;4.248;2024-02-28T16:53:21;9.50;99.90
16301;DHT22;8258;51.020;4.248;2024-02-28T16:55:49;9.50;99.90
16301;DHT22;8258;51.020;4.248;2024-02-28T16:58:16;9.50;99.90
16301;DHT22;8258;51.020;4.248;2024-02-28T17:00:44;9.50;99.90
16301;DHT22;8258;51.020;4.248;2024-02-28T17:03:12;9.50;99.90
16301;DHT22;8258;51.020;4.248;2024-02-28T17:05:39;9.50;99.90
16301;DHT22;8258;51.020;4.248;2024-02-28T17:08:06;9.50;99.90
16301;DHT22;8258;51.020;4.248;2024-02-28T17:10:33;9.40;99.90
16301;DHT22;8258;51.020;4.248;2024-02-28T17:13:02;9.40;99.90
16301;DHT22;8258;51.020;4.248;2024-02-28T17:15:30;9.40;99.90
16301;DHT22;8258;51.020;4.248;2024-02-28T17:17:59;9.40;99.90
16301;DHT22;8258;51.020;4.248;2024-02-28T17:20:26;9.30;99.90
16301;DHT22;8258;51.020;4.248;2024-02-28T17:22:55;9.30;99.90
16301;DHT22;8258;51.020;4.248;2024-02-28T17:25:23;9.30;99.90
16301;DHT22;8258;51.020;4.248;2024-02-28T17:27:51;9.30;99.90
16301;DHT22;8258;51.020;4.248;2024-02-28T17:30:18;9.30;99.90
16301;DHT22;8258;51.020;4.248;2024-02-28T17:32:45;9.20;99.90
16301;DHT22;8258;51.020;4.248;2024-02-28T17:35:16;9.20;99.90
16301;DHT22;8258;51.020;4.248;2024-02-28T17:37:43;9.20;99.90
16301;DHT22;8258;51.020;4.248;2024-02-28T17:40:11;9.20;99.90
16301;DHT22;8258;51.020;4.248;2024-02-28T17:42:39;9.10;99.90
16301;DHT22;8258;51.020;4.248;2024-02-28T17:45:08;9.10;99.90
16301;DHT22;8258;51.020;4.248;2024-02-28T17:47:36;9.10;99.90
16301;DHT22;8258;51.020;4.248;2024-02-28T17:50:05;9.10;99.90
16301;DHT22;8258;51.020;4.248;2024-02-28T17:52:35;9.00;99.90
16301;DHT22;8258;51.020;4.248;2024-02-28T17:55:03;8.90;99.90
16301;DHT22;8258;51.020;4.248;2024-02-28T17:57:34;8.90;99.90
16301;DHT22;8258;51.020;4.248;2024-02-28T18:00:02;8.80;99.90
16301;DHT22;8258;51.020;4.248;2024-02-28T18:02:32;8.80;99.90
16301;DHT22;8258;51.020;4.248;2024-02-28T18:05:00;8.80;99.90
16301;DHT22;8258;51.020;4.248;2024-02-28T18:07:27;8.70;99.90
16301;DHT22;8258;51.020;4.248;2024-02-28T18:09:56;8.70;99.90
16301;DHT22;8258;51.020;4.248;2024-02-28T18:12:23;8.60;99.90
16301;DHT22;8258;51.020;4.248;2024-02-28T18:14:50;8.60;99.90
16301;DHT22;8258;51.020;4.248;2024-02-28T18:17:17;8.60;99.90
16301;DHT22;8258;51.020;4.248;2024-02-28T18:19:46;8.50;99.90
16301;DHT22;8258;51.020;4.248;2024-02-28T18:22:13;8.50;99.90
16301;DHT22;8258;51.020;4.248;2024-02-28T18:24:40;8.40;99.90
16301;DHT22;8258;51.020;4.248;2024-02-28T18:27:09;8.30;99.90
16301;DHT22;8258;51.020;4.248;2024-02-28T18:29:36;8.30;99.90
16301;DHT22;8258;51.020;4.248;2024-02-28T18:32:04;8.30;99.90
16301;DHT22;8258;51.020;4.248;2024-02-28T18:34:31;8.30;99.90
16301;DHT22;8258;51.020;4.248;2024-02-28T18:36:59;8.20;99.90
16301;DHT22;8258;51.020;4.248;2024-02-28T18:39:26;8.20;99.90
16301;DHT22;8258;51.020;4.248;2024-02-28T18:41:53;8.20;99.90
16301;DHT22;8258;51.020;4.248;2024-02-28T18:44:22;8.10;99.90
16301;DHT22;8258;51.020;4.248;2024-02-28T18:46:49;8.10;99.90
16301;DHT22;8258;51.020;4.248;2024-02-28T18:49:16;8.10;99.90
16301;DHT22;8258;51.020;4.248;2024-02-28T18:51:44;8.10;99.90
16301;DHT22;8258;51.020;4.248;2024-02-28T18:54:12;8.10;99.90
16301;DHT22;8258;51.020;4.248;2024-02-28T18:56:39;8.10;99.90
16301;DHT22;8258;51.020;4.248;2024-02-28T18:59:07;8.00;99.90
16301;DHT22;8258;51.020;4.248;2024-02-28T19:01:36;8.00;99.90
16301;DHT22;8258;51.020;4.248;2024-02-28T19:04:03;8.00;99.90
16301;DHT22;8258;51.020;4.248;2024-02-28T20:36:18;6.90;99.90
16301;DHT22;8258;51.020;4.248;2024-02-28T20:38:45;6.90;99.90
16301;DHT22;8258;51.020;4.248;2024-02-28T20:41:16;6.90;99.90
16301;DHT22;8258;51.020;4.248;2024-02-28T20:43:44;6.80;99.90
16301;DHT22;8258;51.020;4.248;2024-02-28T20:46:11;6.80;99.90
16301;DHT22;8258;51.020;4.248;2024-02-28T20:48:38;6.80;99.90
16301;DHT22;8258;51.020;4.248;2024-02-28T20:51:06;6.80;99.90
16301;DHT22;8258;51.020;4.248;2024-02-28T20:53:35;6.70;99.90
16301;DHT22;8258;51.020;4.248;2024-02-28T20:56:04;6.70;99.90
16301;DHT22;8258;51.020;4.248;2024-02-28T20:58:31;6.60;99.90
16301;DHT22;8258;51.020;4.248;2024-02-28T21:00:59;6.60;99.90
16301;DHT22;8258;51.020;4.248;2024-02-28T21:03:27;6.60;99.90
16301;DHT22;8258;51.020;4.248;2024-02-28T21:05:54;6.50;99.90
16301;DHT22;8258;51.020;4.248;2024-02-28T21:08:21;6.50;99.90
16301;DHT22;8258;51.020;4.248;2024-02-28T21:10:50;6.50;99.90
16301;DHT22;8258;51.020;4.248;2024-02-28T21:13:17;6.50;99.90
16301;DHT22;8258;51.020;4.248;2024-02-28T21:15:44;6.50;99.90
16301;DHT22;8258;51.020;4.248;2024-02-28T21:18:11;6.50;99.90
16301;DHT22;8258;51.020;4.248;2024-02-28T21:20:38;6.50;99.90
16301;DHT22;8258;51.020;4.248;2024-02-28T21:23:05;6.50;99.90
16301;DHT22;8258;51.020;4.248;2024-02-28T21:25:32;6.50;99.90
16301;DHT22;8258;51.020;4.248;2024-02-28T21:28:01;6.50;99.90
16301;DHT22;8258;51.020;4.248;2024-02-28T21:30:28;6.50;99.90
16301;DHT22;8258;51.020;4.248;2024-02-28T21:32:55;6.60;99.90
16301;DHT22;8258;51.020;4.248;2024-02-28T21:35:22;6.60;99.90
16301;DHT22;8258;51.020;4.248;2024-02-28T21:37:49;6.50;99.90
16301;DHT22;8258;51.020;4.248;2024-02-28T21:40:16;6.50;99.90
16301;DHT22;8258;51.020;4.248;2024-02-28T21:42:45;6.60;99.90
16301;DHT22;8258;51.020;4.248;2024-02-28T21:45:14;6.60;99.90
16301;DHT22;8258;51.020;4.248;2024-02-28T21:47:43;6.60;99.90
16301;DHT22;8258;51.020;4.248;2024-02-28T21:50:11;6.60;99.90
16301;DHT22;8258;51.020;4.248;2024-02-28T21:52:38;6.60;99.90
16301;DHT22;8258;51.020;4.248;2024-02-28T21:55:05;6.60;99.90
16301;DHT22;8258;51.020;4.248;2024-02-28T21:57:33;6.70;99.90
16301;DHT22;8258;51.020;4.248;2024-02-28T22:00:01;6.60;99.90
16301;DHT22;8258;51.020;4.248;2024-02-28T22:02:29;6.60;99.90
16301;DHT22;8258;51.020;4.248;2024-02-28T22:04:56;6.60;99.90
16301;DHT22;8258;51.020;4.248;2024-02-28T22:07:23;6.60;99.90
16301;DHT22;8258;51.020;4.248;2024-02-28T22:09:50;6.60;99.90
16301;DHT22;8258;51.020;4.248;2024-02-28T22:12:17;6.70;99.90
16301;DHT22;8258;51.020;4.248;2024-02-28T22:14:44;6.70;99.90
16301;DHT22;8258;51.020;4.248;2024-02-28T22:17:11;6.70;99.90
16301;DHT22;8258;51.020;4.248;2024-02-28T22:19:39;6.60;99.90
16301;DHT22;8258;51.020;4.248;2024-02-28T22:22:07;6.60;99.90
16301;DHT22;8258;51.020;4.248;2024-02-28T22:24:34;6.60;99.90
16301;DHT22;8258;51.020;4.248;2024-02-28T22:27:01;6.60;99.90
16301;DHT22;8258;51.020;4.248;2024-02-28T22:29:28;6.60;99.90
16301;DHT22;8258;51.020;4.248;2024-02-28T22:31:54;6.60;99.90
16301;DHT22;8258;51.020;4.248;2024-02-28T22:34:21;6.60;99.90
16301;DHT22;8258;51.020;4.248;2024-02-28T22:36:50;6.50;99.90
16301;DHT22;8258;51.020;4.248;2024-02-28T22:39:17;6.60;99.90
16301;DHT22;8258;51.020;4.248;2024-02-28T22:41:44;6.60;99.90
16301;DHT22;8258;51.020;4.248;2024-02-28T22:44:11;6.50;99.90
16301;DHT22;8258;51.020;4.248;2024-02-28T22:46:38;6.60;99.90